ENI weather

El Nido Airport
El Nido, Palawan Province, Philippines

Public forecast

Using degrees Celsius for public forecast. Weather courtesy of forecast.io.

Closest aviation weather report (METAR) to El Nido Airport

Closest report is Puerto Princesa Airport, 95.9 nm (177.6 km) SSW. Retrieved 2019/10/18 10:00 UTC (57 minutes ago):

RPVP 181000Z 09008KT 9999 FEW019 SCT080 30/24 Q1010 RMK A2983

Closest aviation forecast (TAF) to El Nido Airport

Closest forecast is Puerto Princesa Airport, 95.9 nm (177.6 km) SSW. Retrieved 2019/10/18 06:01 UTC (5 hours ago):

TAF RPVP 180500Z 1806/1906 09006KT 9999 FEW019 SCT080 TEMPO 1806/1812 09012KT -SHRA SCT017CB BKN080